createdAt,value
2023-04-19T00:00:57.827Z,101498.16
2023-04-19T00:03:26.392Z,101492.84
2023-04-19T00:05:59.574Z,101498.34
2023-04-19T00:08:29.018Z,101499.19
2023-04-19T00:10:56.944Z,101497.53
2023-04-19T00:13:25.693Z,101491.38
2023-04-19T00:15:53.726Z,101497.94
2023-04-19T00:18:21.599Z,101489.16
2023-04-19T00:20:50.493Z,101491.00
2023-04-19T00:23:18.468Z,101486.06
2023-04-19T00:25:51.662Z,101483.00
2023-04-19T00:28:19.946Z,101485.41
2023-04-19T00:30:47.979Z,101483.16
2023-04-19T00:33:16.705Z,101485.00
2023-04-19T00:35:44.703Z,101489.50
2023-04-19T00:38:12.683Z,101483.56
2023-04-19T00:40:41.391Z,101483.56
2023-04-19T00:43:10.844Z,101484.38
2023-04-19T00:45:38.924Z,101483.56
2023-04-19T00:48:08.549Z,101481.09
2023-04-19T00:50:36.724Z,101483.16
2023-04-19T00:53:04.806Z,101478.88
2023-04-19T00:55:34.003Z,101479.88
2023-04-19T00:58:02.153Z,101473.31
2023-04-19T01:00:31.738Z,101479.03
2023-04-19T01:03:00.289Z,101483.72
2023-04-19T01:05:28.620Z,101476.13
2023-04-19T01:07:56.619Z,101480.00
2023-04-19T01:10:25.221Z,101474.84
2023-04-19T01:12:53.159Z,101482.22
2023-04-19T01:15:21.428Z,101479.94
2023-04-19T01:17:51.597Z,101475.66
2023-04-19T01:20:19.796Z,101477.50
2023-04-19T01:22:49.201Z,101467.06
2023-04-19T01:25:17.762Z,101469.91
2023-04-19T01:27:45.685Z,101479.69
2023-04-19T01:30:14.322Z,101469.06
2023-04-19T01:32:42.946Z,101470.09
2023-04-19T01:35:11.423Z,101475.63
2023-04-19T01:37:39.396Z,101468.47
2023-04-19T01:40:10.261Z,101468.41
2023-04-19T01:42:38.027Z,101469.63
2023-04-19T01:45:06.883Z,101470.66
2023-04-19T01:47:35.268Z,101473.69
2023-04-19T01:50:03.036Z,101469.78
2023-04-19T01:52:30.858Z,101476.09
2023-04-19T01:54:59.019Z,101464.66
2023-04-19T01:57:28.171Z,101470.19
2023-04-19T01:59:55.944Z,101473.22
2023-04-19T02:02:24.251Z,101466.25
2023-04-19T02:04:52.031Z,101470.56
2023-04-19T02:07:19.691Z,101462.56
2023-04-19T02:09:47.981Z,101452.53
2023-04-19T02:12:15.704Z,101454.38
2023-04-19T02:14:44.746Z,101457.69
2023-04-19T02:17:13.025Z,101461.31
2023-04-19T02:19:40.940Z,101456.03
2023-04-19T02:22:08.585Z,101452.97
2023-04-19T02:24:36.789Z,101454.63
2023-04-19T02:27:04.562Z,101450.13
2023-04-19T02:29:32.590Z,101456.09
2023-04-19T02:32:04.497Z,101450.94
2023-04-19T02:34:32.415Z,101451.38
2023-04-19T02:37:00.500Z,101452.19
2023-04-19T02:39:29.125Z,101447.69
2023-04-19T02:41:56.826Z,101442.81
2023-04-19T02:44:24.525Z,101451.19
2023-04-19T02:46:53.528Z,101442.22
2023-04-19T02:49:22.832Z,101437.53
2023-04-19T02:51:52.170Z,101441.81
2023-04-19T02:54:20.506Z,101438.53
2023-04-19T02:56:48.163Z,101433.03
2023-04-19T02:59:15.856Z,101429.94
2023-04-19T03:01:44.183Z,101434.88
2023-04-19T03:04:12.623Z,101434.25
2023-04-19T03:06:42.103Z,101429.34
2023-04-19T03:09:10.303Z,101426.69
2023-04-19T03:11:38.672Z,101430.59
2023-04-19T03:14:06.508Z,101433.47
2023-04-19T03:16:34.952Z,101421.81
2023-04-19T03:19:02.624Z,101418.13
2023-04-19T03:21:30.273Z,101418.78
2023-04-19T03:23:59.911Z,101423.66
2023-04-19T03:26:27.435Z,101422.78
2023-04-19T03:28:55.146Z,101418.09
2023-04-19T03:31:23.515Z,101423.63
2023-04-19T03:33:51.680Z,101411.75
2023-04-19T03:36:19.385Z,101419.28
2023-04-19T03:38:47.673Z,101414.78
2023-04-19T03:41:24.469Z,101417.44
2023-04-19T03:43:52.757Z,101416.00
2023-04-19T03:46:20.748Z,101415.78
2023-04-19T03:48:49.062Z,101416.72
2023-04-19T03:51:17.083Z,101411.06
2023-04-19T03:53:44.819Z,101414.78
2023-04-19T03:56:12.489Z,101414.41
2023-04-19T03:58:42.870Z,101421.13
2023-04-19T04:01:18.956Z,101418.72
2023-04-19T04:03:47.536Z,101422.41
2023-04-19T04:06:15.426Z,101419.38
2023-04-19T04:08:43.078Z,101418.16
2023-04-19T04:11:11.309Z,101418.78
2023-04-19T04:13:38.970Z,101420.44
2023-04-19T04:16:08.240Z,101426.97
2023-04-19T04:18:36.421Z,101413.84
2023-04-19T04:21:04.684Z,101419.53
2023-04-19T04:23:33.806Z,101419.94
2023-04-19T04:26:02.982Z,101427.03
2023-04-19T04:28:31.356Z,101422.13
2023-04-19T04:31:00.264Z,101428.56
2023-04-19T04:33:30.400Z,101432.41
2023-04-19T04:35:59.092Z,101431.47
2023-04-19T04:38:27.282Z,101434.34
2023-04-19T04:40:57.569Z,101435.38
2023-04-19T04:43:29.064Z,101441.69
2023-04-19T04:45:58.484Z,101433.09
2023-04-19T04:48:26.274Z,101434.31
2023-04-19T04:50:55.500Z,101439.41
2023-04-19T04:53:23.756Z,101442.84
2023-04-19T04:55:51.584Z,101442.88
2023-04-19T04:58:20.446Z,101437.97
2023-04-19T05:00:49.107Z,101439.94
2023-04-19T05:03:17.045Z,101440.31
2023-04-19T05:05:45.323Z,101452.81
2023-04-19T05:08:15.106Z,101444.13
2023-04-19T05:10:42.631Z,101450.63
2023-04-19T05:13:10.472Z,101448.53
2023-04-19T05:15:38.616Z,101447.97
2023-04-19T05:18:06.863Z,101447.75
2023-04-19T05:20:34.903Z,101450.66
2023-04-19T05:23:04.057Z,101456.38
2023-04-19T05:25:33.128Z,101448.66
2023-04-19T05:28:00.860Z,101452.69
2023-04-19T05:30:29.011Z,101443.34
2023-04-19T05:32:57.967Z,101456.63
2023-04-19T05:35:25.712Z,101453.13
2023-04-19T05:37:53.803Z,101456.44
2023-04-19T05:40:23.604Z,101462.84
2023-04-19T05:42:52.934Z,101458.03
2023-04-19T05:45:21.189Z,101456.41
2023-04-19T05:47:48.997Z,101455.59
2023-04-19T05:50:18.051Z,101466.69
2023-04-19T05:52:46.244Z,101451.81
2023-04-19T05:55:14.088Z,101457.91
2023-04-19T05:57:41.852Z,101454.47
2023-04-19T06:00:13.278Z,101456.44
2023-04-19T06:02:41.215Z,101461.19
2023-04-19T06:05:10.741Z,101457.38
2023-04-19T06:07:43.171Z,101469.03
2023-04-19T06:10:11.902Z,101455.78
2023-04-19T06:12:39.620Z,101467.06
2023-04-19T06:15:08.946Z,101464.00
2023-04-19T06:17:38.041Z,101464.69
2023-04-19T06:20:08.403Z,101464.09
2023-04-19T06:22:36.374Z,101458.38
2023-04-19T06:25:04.319Z,101464.34
2023-04-19T06:27:32.509Z,101470.47
2023-04-19T06:30:00.997Z,101469.22
2023-04-19T06:32:28.735Z,101475.41
2023-04-19T06:34:59.740Z,101465.16
2023-04-19T06:37:27.413Z,101463.53
2023-04-19T06:39:55.493Z,101470.91
2023-04-19T06:42:25.843Z,101465.38
2023-04-19T06:44:53.579Z,101454.16
2023-04-19T06:47:21.274Z,101461.75
2023-04-19T06:49:49.469Z,101456.41
2023-04-19T06:52:18.594Z,101453.56
2023-04-19T06:54:49.355Z,101457.47
2023-04-19T06:57:17.189Z,101454.81
2023-04-19T06:59:45.001Z,101454.03
2023-04-19T07:02:13.323Z,101452.16
2023-04-19T07:04:41.213Z,101447.72
2023-04-19T07:07:09.049Z,101446.09
2023-04-19T07:09:38.526Z,101452.44
2023-04-19T07:12:07.222Z,101460.03
2023-04-19T07:14:34.954Z,101447.38
2023-04-19T07:17:03.259Z,101446.16
2023-04-19T07:19:30.920Z,101448.59
2023-04-19T07:21:58.598Z,101452.47
2023-04-19T07:24:28.431Z,101451.91
2023-04-19T07:26:57.508Z,101454.16
2023-04-19T07:29:25.224Z,101455.56
2023-04-19T07:31:55.843Z,101458.03
2023-04-19T07:34:23.830Z,101449.84
2023-04-19T07:36:51.520Z,101454.91
2023-04-19T07:39:19.628Z,101456.34
2023-04-19T07:41:47.408Z,101448.53
2023-04-19T07:44:16.641Z,101440.72
2023-04-19T07:46:45.617Z,101456.31
2023-04-19T07:49:13.367Z,101459.34
2023-04-19T07:51:41.357Z,101444.97
2023-04-19T07:54:11.288Z,101445.53
2023-04-19T07:56:39.188Z,101448.38
2023-04-19T07:59:09.087Z,101445.66
2023-04-19T08:01:39.277Z,101446.81
2023-04-19T08:04:08.065Z,101437.97
2023-04-19T08:06:37.916Z,101437.94
2023-04-19T08:09:06.000Z,101438.66
2023-04-19T08:11:33.692Z,101447.28
2023-04-19T08:17:14.603Z,101436.75
2023-04-19T08:19:22.475Z,101449.47
2023-04-19T08:21:50.666Z,101456.59
2023-04-19T08:24:18.513Z,101457.03
2023-04-19T08:26:53.928Z,101446.47
2023-04-19T08:29:22.118Z,101443.31
2023-04-19T08:31:49.969Z,101442.06
2023-04-19T08:34:18.193Z,101446.34
2023-04-19T08:37:00.121Z,101444.69
2023-04-19T08:39:33.875Z,101441.75
2023-04-19T08:42:10.416Z,101433.66
2023-04-19T08:45:13.204Z,101439.78
2023-04-19T08:47:42.199Z,101438.78
2023-04-19T08:50:31.203Z,101429.97
2023-04-19T08:53:16.469Z,101431.47
2023-04-19T08:58:32.966Z,101443.50
2023-04-19T09:01:17.097Z,101432.00
2023-04-19T09:03:59.419Z,101439.03
2023-04-19T09:06:37.913Z,101430.72
2023-04-19T09:09:33.418Z,101423.78
2023-04-19T09:12:05.761Z,101419.78
2023-04-19T09:14:33.454Z,101416.81
2023-04-19T09:17:18.087Z,101419.75
2023-04-19T09:19:49.706Z,101427.31
2023-04-19T09:22:17.998Z,101415.94
2023-04-19T09:27:27.016Z,101414.94
2023-04-19T09:29:55.606Z,101416.28
2023-04-19T09:32:23.461Z,101404.50
2023-04-19T09:34:56.511Z,101408.50
2023-04-19T09:37:39.089Z,101414.94
2023-04-19T09:40:28.073Z,101411.78
2023-04-19T09:45:30.538Z,101400.53
2023-04-19T09:48:03.593Z,101406.81
2023-04-19T09:50:32.269Z,101397.97
2023-04-19T09:53:01.952Z,101401.44
2023-04-19T09:55:41.298Z,101393.88
2023-04-19T09:58:17.254Z,101398.41
2023-04-19T10:00:50.212Z,101398.91
2023-04-19T10:03:21.969Z,101392.34
2023-04-19T10:05:51.173Z,101391.63
2023-04-19T10:08:20.015Z,101380.84
2023-04-19T10:10:55.032Z,101376.34
2023-04-19T10:13:26.643Z,101377.94
2023-04-19T10:15:59.318Z,101373.06
2023-04-19T10:18:36.662Z,101379.94
2023-04-19T10:21:09.394Z,101379.94
2023-04-19T10:23:38.530Z,101365.00
2023-04-19T10:26:07.902Z,101369.25
2023-04-19T10:28:38.258Z,101371.78
2023-04-19T10:31:06.762Z,101370.47
2023-04-19T10:33:38.500Z,101363.38
2023-04-19T10:36:10.455Z,101374.34
2023-04-19T10:38:40.786Z,101356.41
2023-04-19T10:41:16.789Z,101354.56
2023-04-19T10:43:48.050Z,101356.16
2023-04-19T10:46:18.470Z,101340.78
2023-04-19T10:48:55.047Z,101349.19
2023-04-19T10:51:25.106Z,101344.88
2023-04-19T10:53:55.651Z,101345.13
2023-04-19T10:57:02.158Z,101337.19
2023-04-19T10:59:34.484Z,101346.38
2023-04-19T11:02:03.756Z,101337.44
2023-04-19T11:05:02.096Z,101331.13
2023-04-19T11:07:29.898Z,101339.53
2023-04-19T11:09:57.581Z,101332.91
2023-04-19T11:12:27.309Z,101337.31
2023-04-19T11:14:57.414Z,101323.34
2023-04-19T11:17:28.258Z,101322.19
2023-04-19T11:19:57.816Z,101319.13
2023-04-19T11:22:33.679Z,101317.13
2023-04-19T11:25:08.785Z,101324.94
2023-04-19T11:27:38.952Z,101314.69
2023-04-19T11:30:08.485Z,101309.69
2023-04-19T11:32:36.311Z,101307.25
2023-04-19T11:35:10.120Z,101311.22
2023-04-19T11:37:39.547Z,101307.03
2023-04-19T11:40:08.829Z,101311.41
2023-04-19T11:42:38.456Z,101307.47
2023-04-19T11:45:13.101Z,101297.25
2023-04-19T11:47:50.750Z,101297.69
2023-04-19T11:50:38.711Z,101298.78
2023-04-19T11:53:17.472Z,101285.13
2023-04-19T11:55:51.061Z,101279.88
2023-04-19T11:58:29.681Z,101296.78
2023-04-19T12:00:58.420Z,101282.44
2023-04-19T12:03:26.991Z,101283.13
2023-04-19T12:05:56.963Z,101274.03
2023-04-19T12:08:32.432Z,101274.28
2023-04-19T12:11:01.307Z,101271.63
2023-04-19T12:13:31.487Z,101279.41
2023-04-19T12:15:59.808Z,101275.22
2023-04-19T12:18:28.348Z,101264.25
2023-04-19T12:20:56.397Z,101261.88
2023-04-19T12:23:24.339Z,101271.41
2023-04-19T12:25:52.458Z,101255.78
2023-04-19T12:28:20.473Z,101258.69
2023-04-19T12:30:50.093Z,101254.66
2023-04-19T12:33:18.127Z,101251.59
2023-04-19T12:35:46.056Z,101256.91
2023-04-19T12:38:14.023Z,101251.22
2023-04-19T12:40:42.183Z,101241.25
2023-04-19T12:43:10.107Z,101235.22
2023-04-19T12:45:38.049Z,101241.56
2023-04-19T12:48:08.131Z,101248.09
2023-04-19T12:50:36.206Z,101234.53
2023-04-19T12:53:04.037Z,101233.69
2023-04-19T12:55:32.422Z,101229.56
2023-04-19T12:58:00.387Z,101239.44
2023-04-19T13:00:30.155Z,101239.50
2023-04-19T13:02:58.718Z,101238.88
2023-04-19T13:05:28.148Z,101236.94
2023-04-19T13:07:56.555Z,101229.28
2023-04-19T13:10:24.775Z,101228.72
2023-04-19T13:12:52.760Z,101223.63
2023-04-19T13:15:20.735Z,101224.88
2023-04-19T13:17:48.813Z,101220.72
2023-04-19T13:20:16.881Z,101227.22
2023-04-19T13:22:45.979Z,101219.69
2023-04-19T13:25:14.051Z,101222.63
2023-04-19T13:27:41.721Z,101218.84
2023-04-19T13:30:10.525Z,101215.47
2023-04-19T13:32:38.441Z,101213.59
2023-04-19T13:35:07.213Z,101213.13
2023-04-19T13:37:34.925Z,101198.41
2023-04-19T13:40:18.138Z,101190.50
2023-04-19T13:42:47.249Z,101196.69
2023-04-19T13:45:15.661Z,101191.69
2023-04-19T13:47:43.411Z,101183.91
2023-04-19T13:50:12.827Z,101180.19
2023-04-19T13:52:41.039Z,101190.66
2023-04-19T13:55:10.756Z,101170.22
2023-04-19T13:57:38.696Z,101174.56
2023-04-19T14:00:08.396Z,101153.38
2023-04-19T14:02:36.872Z,101151.06
2023-04-19T14:05:05.256Z,101171.13
2023-04-19T14:07:34.423Z,101169.88
2023-04-19T14:10:02.252Z,101176.06
2023-04-19T14:12:31.300Z,101152.00
2023-04-19T14:14:59.575Z,101159.78
2023-04-19T14:17:27.385Z,101164.22
2023-04-19T14:19:55.097Z,101150.94
2023-04-19T14:22:22.782Z,101149.88
2023-04-19T14:24:50.688Z,101158.22
2023-04-19T14:27:19.175Z,101149.00
2023-04-19T14:29:48.286Z,101145.88
2023-04-19T14:32:26.028Z,101151.63
2023-04-19T14:34:55.640Z,101131.56
2023-04-19T14:37:24.254Z,101145.47
2023-04-19T14:39:52.578Z,101139.28
2023-04-19T14:42:22.854Z,101142.78
2023-04-19T14:44:53.249Z,101135.13
2023-04-19T14:47:22.363Z,101156.03
2023-04-19T14:49:50.537Z,101126.28
2023-04-19T14:52:18.388Z,101135.47
2023-04-19T14:54:46.607Z,101127.44
2023-04-19T14:57:14.586Z,101141.97
2023-04-19T14:59:42.269Z,101124.06
2023-04-19T15:02:13.873Z,101119.63
2023-04-19T15:04:42.313Z,101116.34
2023-04-19T15:07:11.409Z,101111.41
2023-04-19T15:09:40.349Z,101113.75
2023-04-19T15:12:08.471Z,101122.22
2023-04-19T15:14:36.437Z,101113.44
2023-04-19T15:17:04.978Z,101105.94
2023-04-19T15:19:34.110Z,101121.59
2023-04-19T15:22:03.871Z,101105.22
2023-04-19T15:24:32.326Z,101100.34
2023-04-19T15:27:00.209Z,101100.59
2023-04-19T15:29:28.022Z,101094.03
2023-04-19T15:31:55.985Z,101103.59
2023-04-19T15:34:25.295Z,101110.47
2023-04-19T15:36:54.474Z,101102.44
2023-04-19T15:39:22.780Z,101101.88
2023-04-19T15:41:50.541Z,101100.22
2023-04-19T15:44:18.402Z,101100.66
2023-04-19T15:46:46.683Z,101087.41
2023-04-19T15:49:14.699Z,101093.25
2023-04-19T15:51:42.693Z,101089.44
2023-04-19T15:54:12.258Z,101096.72
2023-04-19T15:56:39.766Z,101108.59
2023-04-19T15:59:07.502Z,101106.38
2023-04-19T16:01:36.973Z,101101.97
2023-04-19T16:04:04.999Z,101110.31
2023-04-19T16:06:32.886Z,101130.41
2023-04-19T16:09:00.802Z,101109.41
2023-04-19T16:11:30.544Z,101090.78
2023-04-19T16:13:58.218Z,101086.16
2023-04-19T16:16:26.817Z,101099.63
2023-04-19T16:18:54.546Z,101090.56
2023-04-19T16:21:22.220Z,101082.97
2023-04-19T16:23:50.103Z,101101.88
2023-04-19T16:26:17.826Z,101086.84
2023-04-19T16:28:46.854Z,101100.66
2023-04-19T16:31:14.808Z,101101.25
2023-04-19T16:33:42.493Z,101098.22
2023-04-19T16:36:10.271Z,101084.72
2023-04-19T16:38:38.149Z,101092.88
2023-04-19T16:41:06.022Z,101088.25
2023-04-19T16:43:33.823Z,101087.53
2023-04-19T16:46:03.166Z,101082.88
2023-04-19T16:48:30.811Z,101085.31
2023-04-19T16:50:58.477Z,101086.13
2023-04-19T16:53:26.393Z,101086.38
2023-04-19T16:55:55.809Z,101090.06
2023-04-19T16:58:24.619Z,101089.81
2023-04-19T17:00:52.495Z,101086.47
2023-04-19T17:03:21.915Z,101088.44
2023-04-19T17:05:49.595Z,101081.34
2023-04-19T17:08:17.459Z,101085.97
2023-04-19T17:10:45.103Z,101079.56
2023-04-19T17:13:12.767Z,101084.47
2023-04-19T17:15:40.939Z,101092.50
2023-04-19T17:18:08.805Z,101091.75
2023-04-19T17:20:37.898Z,101089.47
2023-04-19T17:23:05.872Z,101083.97
2023-04-19T17:25:33.579Z,101086.69
2023-04-19T17:28:01.415Z,101085.91
2023-04-19T17:30:29.459Z,101086.81
2023-04-19T17:32:57.378Z,101083.19
2023-04-19T17:35:26.090Z,101085.66
2023-04-19T17:37:55.594Z,101086.69
2023-04-19T17:40:23.328Z,101087.75
2023-04-19T17:42:51.006Z,101085.66
2023-04-19T17:45:19.169Z,101081.78
2023-04-19T17:47:46.875Z,101097.44
2023-04-19T17:50:15.114Z,101085.28
2023-04-19T17:52:43.396Z,101086.75
2023-04-19T17:55:12.828Z,101072.22
2023-04-19T17:57:40.517Z,101080.50
2023-04-19T18:00:12.329Z,101083.63
2023-04-19T18:02:40.476Z,101074.19
2023-04-19T18:05:08.935Z,101082.94
2023-04-19T18:07:37.891Z,101079.66
2023-04-19T18:10:06.575Z,101077.94
2023-04-19T18:12:35.704Z,101086.66
2023-04-19T18:15:04.505Z,101080.41
2023-04-19T18:17:32.234Z,101088.38
2023-04-19T18:19:59.953Z,101086.03
2023-04-19T18:22:28.517Z,101081.53
2023-04-19T18:24:56.266Z,101090.63
2023-04-19T18:27:23.984Z,101079.53
2023-04-19T18:29:53.858Z,101082.94
2023-04-19T18:32:23.430Z,101079.94
2023-04-19T18:34:51.351Z,101083.84
2023-04-19T18:37:19.294Z,101083.53
2023-04-19T18:39:47.215Z,101086.22
2023-04-19T18:42:15.123Z,101090.13
2023-04-19T18:44:53.703Z,101085.97
2023-04-19T18:47:23.542Z,101085.19
2023-04-19T18:50:02.766Z,101092.34
2023-04-19T18:52:34.508Z,101097.25
2023-04-19T18:55:02.774Z,101098.81
2023-04-19T18:57:34.640Z,101099.28
2023-04-19T19:00:06.338Z,101098.53
2023-04-19T19:02:36.991Z,101100.16
2023-04-19T19:05:08.219Z,101104.84
2023-04-19T19:07:37.782Z,101118.47
2023-04-19T19:10:19.062Z,101116.00
2023-04-19T19:12:49.616Z,101125.63
2023-04-19T19:15:18.251Z,101122.69
2023-04-19T19:17:49.752Z,101117.91
2023-04-19T19:20:18.613Z,101120.28
2023-04-19T19:22:46.496Z,101126.78
2023-04-19T19:25:14.322Z,101129.50
2023-04-19T19:28:02.351Z,101121.63
2023-04-19T19:30:33.556Z,101124.78
2023-04-19T19:33:05.183Z,101127.97
2023-04-19T19:35:33.574Z,101120.38
2023-04-19T19:38:01.294Z,101117.94
2023-04-19T19:40:32.371Z,101123.91
2023-04-19T19:43:00.842Z,101126.63
2023-04-19T19:45:29.848Z,101122.94
2023-04-19T19:47:59.186Z,101126.19
2023-04-19T19:53:01.160Z,101125.47
2023-04-19T19:55:29.937Z,101130.75
2023-04-19T20:03:00.045Z,101134.75
2023-04-19T20:05:30.364Z,101131.91
2023-04-19T20:08:08.413Z,101132.28
2023-04-19T20:10:38.694Z,101133.06
2023-04-19T20:13:06.910Z,101138.56
2023-04-19T20:15:35.083Z,101136.53
2023-04-19T20:18:03.826Z,101138.91
2023-04-19T20:20:33.174Z,101138.69
2023-04-19T20:23:00.888Z,101138.47
2023-04-19T20:25:28.818Z,101140.47
2023-04-19T20:27:56.481Z,101141.41
2023-04-19T20:30:24.286Z,101138.06
2023-04-19T20:32:52.017Z,101139.16
2023-04-19T20:35:19.763Z,101136.88
2023-04-19T20:37:48.826Z,101141.81
2023-04-19T20:40:17.878Z,101141.00
2023-04-19T20:42:45.666Z,101141.22
2023-04-19T20:45:14.266Z,101139.09
2023-04-19T20:47:43.000Z,101145.91
2023-04-19T20:50:11.669Z,101145.09
2023-04-19T20:52:39.473Z,101150.59
2023-04-19T20:55:09.870Z,101135.66
2023-04-19T20:57:37.535Z,101146.09
2023-04-19T21:00:08.476Z,101134.25
2023-04-19T21:02:36.452Z,101141.81
2023-04-19T21:05:04.338Z,101144.06
2023-04-19T21:07:31.979Z,101152.88
2023-04-19T21:09:59.832Z,101144.94
2023-04-19T21:12:28.878Z,101140.59
2023-04-19T21:14:56.617Z,101149.63
2023-04-19T21:17:24.515Z,101148.44
2023-04-19T21:19:52.321Z,101148.81
2023-04-19T21:22:20.036Z,101146.00
2023-04-19T21:24:48.257Z,101149.06
2023-04-19T21:27:15.975Z,101146.41
2023-04-19T21:29:45.004Z,101142.72
2023-04-19T21:32:13.256Z,101138.03
2023-04-19T21:34:41.254Z,101141.94
2023-04-19T21:37:08.909Z,101140.50
2023-04-19T21:39:37.184Z,101137.22
2023-04-19T21:42:05.044Z,101137.03
2023-04-19T21:44:34.026Z,101139.91
2023-04-19T21:47:03.649Z,101147.69
2023-04-19T21:49:31.399Z,101148.94
2023-04-19T21:51:59.087Z,101144.69
2023-04-19T21:54:34.084Z,101140.16
2023-04-19T21:57:02.586Z,101141.78
2023-04-19T21:59:31.358Z,101147.53
2023-04-19T22:01:59.804Z,101142.59
2023-04-19T22:04:30.738Z,101143.63
2023-04-19T22:07:02.719Z,101145.72
2023-04-19T22:09:31.171Z,101148.94
2023-04-19T22:11:59.979Z,101138.75
2023-04-19T22:14:28.200Z,101138.75
2023-04-19T22:16:56.576Z,101131.38
2023-04-19T22:19:24.844Z,101139.41
2023-04-19T22:21:55.726Z,101135.13
2023-04-19T22:24:23.607Z,101135.31
2023-04-19T22:26:53.000Z,101133.09
2023-04-19T22:29:21.347Z,101141.66
2023-04-19T22:31:49.159Z,101131.41
2023-04-19T22:34:16.892Z,101141.25
2023-04-19T22:36:45.131Z,101133.91
2023-04-19T22:39:14.171Z,101137.97
2023-04-19T22:41:41.821Z,101140.44
2023-04-19T22:44:09.788Z,101139.63
2023-04-19T22:46:37.692Z,101140.25
2023-04-19T22:49:05.412Z,101133.09
2023-04-19T22:51:34.511Z,101135.56
2023-04-19T22:54:03.336Z,101139.81
2023-04-19T22:56:32.398Z,101140.25
2023-04-19T22:59:00.962Z,101135.97
2023-04-19T23:01:28.703Z,101142.88
2023-04-19T23:03:56.374Z,101136.53
2023-04-19T23:06:25.074Z,101145.31
2023-04-19T23:08:53.232Z,101137.56
2023-04-19T23:11:24.753Z,101144.50
2023-04-19T23:13:54.384Z,101128.56
2023-04-19T23:16:24.138Z,101130.63
2023-04-19T23:18:51.841Z,101131.44
2023-04-19T23:21:20.070Z,101125.91
2023-04-19T23:23:47.812Z,101134.69
2023-04-19T23:26:15.577Z,101123.47
2023-04-19T23:28:43.758Z,101125.47
2023-04-19T23:31:12.813Z,101125.88
2023-04-19T23:33:40.716Z,101126.91
2023-04-19T23:36:09.265Z,101116.63
2023-04-19T23:38:36.930Z,101120.56
2023-04-19T23:41:04.649Z,101120.53
2023-04-19T23:43:32.867Z,101119.94
2023-04-19T23:46:00.633Z,101120.91
2023-04-19T23:48:29.682Z,101119.44
2023-04-19T23:50:58.038Z,101115.97
2023-04-19T23:53:26.116Z,101121.88
2023-04-19T23:55:53.852Z,101117.53
2023-04-19T23:58:22.130Z,101113.25
